Central Valley, Washington
Current Conditions -  °F | °C
As of 6:55 AM on Wednesday 26 Nov 2014 (Local Time) from KPWT Reporting Station
Overcast Overcast  
Wind Chill: 54°   Ceiling: 600
Heat Index: 54°   Visibility: 10mi
Dew Point: 54°   Wind: 14mph
Humidity: 100%   Direction: 180°S
Pressure: 30.14"   Gusts: 20mph
Location:  47.7571°N, 122.623°W
Report Text: KPWT 261455Z AUTO 18012G17KT 10SM BKN006 BKN012 OVC016 12/12 A3014 RMK AO1 60001 57010
Loading
Personal Weather Stations






























Interactive Weather Map New forecast layout! Learn more

10-Day Weather Forecast

Advertisements
Track Severe Weather on mobile